Time;durP1;ratioP1;P1;durP2;ratioP2;P2;SDS_P1;SDS_P2;PMS_P1;PMS_P2;Temp;Humidity;BMP_temperature;BMP_pressure;BME280_temperature;BME280_humidity;BME280_pressure;Samples;Min_cycle;Max_cycle;Signal;HPM_P1;HPM_P2
2023/03/21 00:01:55;;;;;;;21.38;9.73;;;;;;;9.01;100.00;101521.00;5056190;28;20034;-73
2023/03/21 00:04:21;;;;;;;23.00;10.80;;;;;;;8.99;100.00;101516.66;5067613;28;20083;-73
2023/03/21 00:06:47;;;;;;;25.13;10.50;;;;;;;8.97;100.00;101515.91;5065203;28;20183;-73
2023/03/21 00:09:12;;;;;;;26.48;10.07;;;;;;;8.95;100.00;101507.09;5063899;28;20492;-74
2023/03/21 00:11:37;;;;;;;24.58;10.63;;;;;;;8.91;100.00;101509.91;5067373;28;20036;-72
2023/03/21 00:14:03;;;;;;;26.10;10.77;;;;;;;8.90;100.00;101507.31;5068923;28;20036;-73
2023/03/21 00:16:31;;;;;;;27.65;11.00;;;;;;;8.89;100.00;101502.94;5064098;28;20025;-74
2023/03/21 00:18:57;;;;;;;26.70;11.20;;;;;;;8.88;100.00;101495.81;5051331;28;20112;-73
2023/03/21 00:21:27;;;;;;;22.90;10.15;;;;;;;8.88;100.00;101496.69;5062193;28;20049;-74
2023/03/21 00:23:53;;;;;;;24.27;9.98;;;;;;;8.88;100.00;101494.00;5058411;28;20554;-74
2023/03/21 00:26:21;;;;;;;28.98;10.88;;;;;;;8.90;100.00;101491.22;5053864;28;20024;-73
2023/03/21 00:28:47;;;;;;;22.30;9.43;;;;;;;8.90;100.00;101486.75;5060292;28;20075;-74
2023/03/21 00:31:12;;;;;;;26.33;10.55;;;;;;;8.89;100.00;101482.34;5060012;28;20108;-73
2023/03/21 00:33:38;;;;;;;23.48;10.10;;;;;;;8.90;100.00;101485.88;5064543;28;20068;-73
2023/03/21 00:36:04;;;;;;;28.10;10.10;;;;;;;8.88;100.00;101477.91;5062462;28;20021;-73
2023/03/21 00:38:30;;;;;;;23.33;10.15;;;;;;;8.88;100.00;101477.06;5072710;28;20033;-74
2023/03/21 00:40:55;;;;;;;20.08;8.77;;;;;;;8.90;100.00;101472.47;5062928;28;20029;-73
2023/03/21 00:43:22;;;;;;;22.50;9.30;;;;;;;8.91;100.00;101474.22;5062969;28;20025;-74
2023/03/21 00:45:50;;;;;;;21.45;10.10;;;;;;;8.91;100.00;101472.38;5062538;28;20124;-73
2023/03/21 00:48:16;;;;;;;21.63;9.57;;;;;;;8.89;100.00;101455.53;5058408;28;20057;-73
2023/03/21 00:50:44;;;;;;;23.35;9.55;;;;;;;8.89;100.00;101460.03;5058345;28;20024;-73
2023/03/21 00:53:10;;;;;;;19.65;8.57;;;;;;;8.91;100.00;101461.66;5070395;28;20024;-74
2023/03/21 00:55:37;;;;;;;24.92;9.07;;;;;;;8.91;100.00;101461.66;5067297;28;20078;-73
2023/03/21 00:58:02;;;;;;;28.17;9.48;;;;;;;8.93;100.00;101456.22;5070752;28;20024;-74
2023/03/21 01:00:27;;;;;;;23.42;8.82;;;;;;;8.95;100.00;101450.78;5069836;28;20048;-74
2023/03/21 01:02:56;;;;;;;23.88;9.18;;;;;;;8.93;100.00;101448.16;5052391;28;20029;-73
2023/03/21 01:06:27;;;;;;;22.00;9.30;;;;;;;8.93;100.00;101437.44;5061422;28;20033;-73
2023/03/21 01:08:22;;;;;;;23.08;8.77;;;;;;;8.92;100.00;101441.94;5069418;28;20384;-73
2023/03/21 01:10:49;;;;;;;22.40;8.70;;;;;;;8.93;100.00;101437.44;5068156;28;20036;-74
2023/03/21 01:13:17;;;;;;;25.05;8.98;;;;;;;8.92;100.00;101427.69;5072495;28;20032;-73
2023/03/21 01:15:46;;;;;;;24.27;8.18;;;;;;;8.92;100.00;101430.38;5069671;28;20353;-73
2023/03/21 01:18:12;;;;;;;25.53;9.20;;;;;;;8.92;100.00;101425.00;5054710;28;20108;-74
2023/03/21 01:20:40;;;;;;;23.30;9.23;;;;;;;8.90;100.00;101419.75;5057621;28;20041;-73
2023/03/21 01:23:06;;;;;;;24.10;9.15;;;;;;;8.91;100.00;101423.28;5064499;28;20051;-74
2023/03/21 01:25:31;;;;;;;24.05;8.95;;;;;;;8.92;100.00;101420.50;5066879;28;20025;-73
2023/03/21 01:27:57;;;;;;;22.23;7.97;;;;;;;8.92;100.00;101419.66;5068229;28;20063;-74
2023/03/21 01:30:22;;;;;;;26.15;8.60;;;;;;;8.91;100.00;101416.09;5067831;28;20066;-73
2023/03/21 01:32:47;;;;;;;21.65;7.85;;;;;;;8.92;100.00;101417.81;5065668;28;20044;-73
2023/03/21 01:35:13;;;;;;;20.90;7.35;;;;;;;8.93;100.00;101416.00;5068373;28;20024;-74
2023/03/21 01:37:38;;;;;;;21.85;8.50;;;;;;;8.92;100.00;101415.16;5047556;28;20017;-73
2023/03/21 01:40:04;;;;;;;23.42;8.00;;;;;;;8.92;100.00;101409.78;5058501;28;20040;-73
2023/03/21 01:42:30;;;;;;;21.23;8.25;;;;;;;8.92;100.00;101409.78;5057839;28;20029;-73
2023/03/21 01:45:03;;;;;;;21.65;7.70;;;;;;;8.92;100.00;101403.56;5070855;28;20025;-74
2023/03/21 01:47:28;;;;;;;22.90;8.07;;;;;;;8.93;100.00;101405.28;5067898;28;20028;-73
2023/03/21 01:49:56;;;;;;;25.00;9.13;;;;;;;8.92;100.00;101403.56;5061031;28;20050;-73
2023/03/21 01:52:40;;;;;;;19.42;7.13;;;;;;;8.92;100.00;101392.84;5068688;28;20325;-73
2023/03/21 01:55:11;;;;;;;23.05;7.72;;;;;;;8.90;100.00;101408.13;5058119;28;20093;-73
2023/03/21 01:57:41;;;;;;;19.17;7.63;;;;;;;8.91;100.00;101399.16;5063166;28;20111;-73
2023/03/21 02:00:11;;;;;;;24.13;9.32;;;;;;;8.92;100.00;101398.19;5058781;28;20066;-73
2023/03/21 02:02:49;;;;;;;19.65;8.32;;;;;;;8.90;100.00;101397.41;5070792;28;20028;-74
2023/03/21 02:05:38;;;;;;;22.10;8.48;;;;;;;8.90;100.00;101390.25;5068375;28;20063;-72
2023/03/21 02:08:03;;;;;;;21.87;7.83;;;;;;;8.92;100.00;101387.47;5055833;28;20048;-72
2023/03/21 02:10:31;;;;;;;22.45;8.73;;;;;;;8.92;100.00;101382.13;5065724;28;20024;-73
2023/03/21 02:13:06;;;;;;;22.98;8.90;;;;;;;8.90;100.00;101378.66;5059658;28;20383;-73
2023/03/21 02:15:33;;;;;;;23.38;8.27;;;;;;;8.91;100.00;101380.38;5075075;28;20475;-75
2023/03/21 02:18:12;;;;;;;24.95;8.73;;;;;;;8.91;100.00;101372.34;5072389;28;20086;-73
2023/03/21 02:21:06;;;;;;;22.23;8.90;;;;;;;8.90;100.00;101365.25;5054867;28;20064;-73
2023/03/21 02:24:00;;;;;;;22.15;8.13;;;;;;;8.90;100.00;101368.81;5048794;28;20029;-73
2023/03/21 02:26:49;;;;;;;23.85;8.25;;;;;;;8.90;100.00;101362.56;5057679;28;20031;-73
2023/03/21 02:29:18;;;;;;;;;;;;;;;8.93;100.00;101351.66;5057266;28;20053;-73
2023/03/21 02:32:02;;;;;;;21.08;7.65;;;;;;;8.88;100.00;101357.28;5070167;28;19927;-73
2023/03/21 02:34:45;;;;;;;21.20;8.43;;;;;;;8.87;100.00;101360.94;5057816;28;20503;-73
2023/03/21 02:37:17;;;;;;;23.17;9.27;;;;;;;8.87;100.00;101352.91;5057312;28;20067;-73
2023/03/21 02:40:10;;;;;;;19.08;7.47;;;;;;;8.86;100.00;101351.16;5062144;28;20036;-73
2023/03/21 02:43:26;;;;;;;23.00;7.40;;;;;;;8.86;100.00;101348.50;5057195;28;20454;-73
2023/03/21 02:46:20;;;;;;;21.73;8.30;;;;;;;8.84;100.00;101350.38;5020369;28;20090;-73
2023/03/21 02:49:14;;;;;;;26.55;9.05;;;;;;;8.81;100.00;101350.56;5040283;28;20029;-73
2023/03/21 02:51:41;;;;;;;20.83;7.50;;;;;;;8.81;100.00;101345.19;5009585;28;20055;-73
2023/03/21 02:54:11;;;;;;;22.52;8.70;;;;;;;8.82;100.00;101343.41;5045217;28;20028;-73
2023/03/21 02:56:39;;;;;;;22.20;8.85;;;;;;;8.81;100.00;101347.03;5046134;28;20028;-73
2023/03/21 02:59:06;;;;;;;22.40;8.40;;;;;;;8.82;100.00;101335.34;5021156;28;20038;-73
2023/03/21 03:01:32;;;;;;;24.23;8.95;;;;;;;8.81;100.00;101338.97;5035665;28;20547;-73
2023/03/21 03:03:57;;;;;;;22.63;8.05;;;;;;;8.79;100.00;101322.13;5044183;28;20033;-73
2023/03/21 03:06:32;;;;;;;23.55;8.73;;;;;;;8.80;100.00;101324.72;5042349;28;20513;-74
2023/03/21 03:09:15;;;;;;;23.55;8.10;;;;;;;8.80;100.00;101318.47;5031439;28;20040;-73
2023/03/21 03:11:46;;;;;;;28.20;8.88;;;;;;;8.79;100.00;101325.66;5044942;28;20397;-73
2023/03/21 03:14:38;;;;;;;21.52;8.38;;;;;;;8.82;100.00;101324.63;5029865;28;20033;-74
2023/03/21 03:17:33;;;;;;;22.17;8.27;;;;;;;8.80;100.00;101324.72;5025561;28;20043;-73
2023/03/21 03:20:12;;;;;;;23.88;8.98;;;;;;;8.78;100.00;101315.03;5036953;28;20523;-73
2023/03/21 03:22:53;;;;;;;23.23;8.50;;;;;;;8.77;100.00;101321.34;5068654;28;20031;-73
2023/03/21 03:25:25;;;;;;;23.98;8.18;;;;;;;8.76;100.00;101322.31;5045390;28;20027;-73
2023/03/21 03:27:53;;;;;;;21.52;8.25;;;;;;;8.74;100.00;101320.59;5070579;28;20040;-73
2023/03/21 03:30:18;;;;;;;22.48;9.10;;;;;;;8.74;100.00;101315.22;5056028;28;20489;-73
2023/03/21 03:32:49;;;;;;;24.17;8.30;;;;;;;8.73;100.00;101305.44;5059841;28;20107;-73
2023/03/21 03:35:18;;;;;;;22.08;8.80;;;;;;;8.77;100.00;101313.31;5068077;28;20391;-73
2023/03/21 03:37:48;;;;;;;26.50;9.02;;;;;;;8.74;100.00;101303.63;5061675;28;20051;-74
2023/03/21 03:40:28;;;;;;;21.17;8.48;;;;;;;8.76;100.00;101303.56;5058726;28;20044;-73
2023/03/21 03:42:59;;;;;;;21.15;7.47;;;;;;;8.73;100.00;101307.28;5059810;28;20028;-73
2023/03/21 03:45:32;;;;;;;25.83;8.20;;;;;;;8.74;100.00;101303.63;5047598;28;20036;-74
2023/03/21 03:48:12;;;;;;;24.73;9.45;;;;;;;8.72;100.00;101301.03;5069537;28;20489;-73
2023/03/21 03:50:44;;;;;;;22.67;8.68;;;;;;;8.72;100.00;101294.81;5063456;28;20039;-73
2023/03/21 03:53:19;;;;;;;24.38;9.88;;;;;;;8.71;100.00;101285.94;5060014;28;20035;-73
2023/03/21 03:55:46;;;;;;;24.38;8.27;;;;;;;8.72;100.00;101297.50;5068554;28;20024;-73
2023/03/21 03:58:11;;;;;;;21.27;8.15;;;;;;;8.70;100.00;101286.03;5064966;28;20029;-74
2023/03/21 04:00:38;;;;;;;25.83;8.88;;;;;;;8.69;100.00;101295.84;5063921;28;20089;-73
2023/03/21 04:03:05;;;;;;;23.23;8.90;;;;;;;8.69;100.00;101293.19;5063511;28;20028;-73
2023/03/21 04:05:31;;;;;;;21.30;8.43;;;;;;;8.69;100.00;101287.81;5066930;28;20543;-73
2023/03/21 04:07:56;;;;;;;23.73;8.45;;;;;;;8.69;100.00;101295.84;5065274;28;20068;-73
2023/03/21 04:10:22;;;;;;;21.38;8.60;;;;;;;8.68;100.00;101287.91;5058141;28;20028;-74
2023/03/21 04:12:47;;;;;;;24.02;8.55;;;;;;;8.67;100.00;101286.19;5059642;28;20033;-73
2023/03/21 04:15:13;;;;;;;20.45;8.68;;;;;;;8.67;100.00;101280.84;5067662;28;20353;-73
2023/03/21 04:17:38;;;;;;;23.55;9.30;;;;;;;8.68;100.00;101286.13;5067041;28;20107;-73
2023/03/21 04:20:05;;;;;;;21.13;8.35;;;;;;;8.67;100.00;101284.38;5061744;28;20049;-73
2023/03/21 04:22:32;;;;;;;26.33;8.57;;;;;;;8.67;100.00;101280.84;5071430;28;20048;-73
2023/03/21 04:24:57;;;;;;;24.35;9.48;;;;;;;8.67;100.00;101283.53;5064519;28;20469;-73
2023/03/21 04:27:23;;;;;;;21.75;9.00;;;;;;;8.67;100.00;101281.69;5072910;28;20123;-73
2023/03/21 04:29:48;;;;;;;23.25;9.45;;;;;;;8.65;100.00;101272.88;5066382;28;20124;-73
2023/03/21 04:32:16;;;;;;;24.23;9.35;;;;;;;8.67;100.00;101276.34;5067257;28;20063;-73
2023/03/21 04:34:48;;;;;;;22.90;8.52;;;;;;;8.65;100.00;101264.81;5073477;28;20024;-74
2023/03/21 04:37:18;;;;;;;22.38;8.98;;;;;;;8.65;100.00;101269.34;5063823;28;20116;-73
2023/03/21 04:39:45;;;;;;;24.23;9.63;;;;;;;8.66;100.00;101255.00;5075682;28;20135;-73
2023/03/21 04:42:13;;;;;;;22.50;8.90;;;;;;;8.64;100.00;101259.56;5057835;28;20029;-74
2023/03/21 04:44:41;;;;;;;29.42;9.98;;;;;;;8.63;100.00;101258.72;5067369;28;20426;-73
2023/03/21 04:47:07;;;;;;;24.48;9.55;;;;;;;8.64;100.00;101255.09;5062392;28;20494;-74
2023/03/21 04:49:33;;;;;;;23.25;9.73;;;;;;;8.63;100.00;101256.03;5075998;28;20063;-73
2023/03/21 04:51:58;;;;;;;21.10;8.65;;;;;;;8.65;100.00;101246.06;5064419;28;20048;-74
2023/03/21 04:54:24;;;;;;;23.73;9.23;;;;;;;8.66;100.00;101249.63;5064508;28;20036;-73
2023/03/21 04:56:51;;;;;;;24.48;9.15;;;;;;;8.66;100.00;101242.44;5054144;28;20055;-73
2023/03/21 04:59:16;;;;;;;27.63;10.18;;;;;;;8.68;100.00;101247.72;5063865;28;20387;-73
2023/03/21 05:01:42;;;;;;;23.95;9.40;;;;;;;8.68;100.00;101234.31;5059293;28;20025;-73
2023/03/21 05:04:09;;;;;;;25.80;8.93;;;;;;;8.67;100.00;101246.88;5064038;28;20036;-74
2023/03/21 05:06:35;;;;;;;26.17;8.85;;;;;;;8.68;100.00;101240.56;5066544;28;20029;-74
2023/03/21 05:09:04;;;;;;;24.33;8.98;;;;;;;8.69;100.00;101241.41;5073707;28;20036;-73
2023/03/21 05:11:30;;;;;;;27.40;7.90;;;;;;;8.69;100.00;101238.72;5071929;28;20516;-74
2023/03/21 05:13:56;;;;;;;23.23;9.30;;;;;;;8.69;100.00;101236.91;5071203;28;20294;-73
2023/03/21 05:16:25;;;;;;;22.25;9.10;;;;;;;8.69;100.00;101234.22;5068454;28;20021;-73
2023/03/21 05:18:54;;;;;;;25.20;8.85;;;;;;;8.69;100.00;101233.38;5072313;28;20036;-74
2023/03/21 05:21:20;;;;;;;23.95;8.70;;;;;;;8.70;100.00;101238.63;5066920;28;20051;-73
2023/03/21 05:23:52;;;;;;;22.05;8.77;;;;;;;8.69;100.00;101239.59;5069296;28;20033;-73
2023/03/21 05:26:19;;;;;;;22.27;8.63;;;;;;;8.70;100.00;101243.16;5064552;28;20048;-74
2023/03/21 05:28:46;;;;;;;21.70;8.00;;;;;;;8.69;100.00;101236.91;5070044;28;20049;-74
2023/03/21 05:31:16;;;;;;;21.58;7.78;;;;;;;8.70;100.00;101237.78;5070914;28;20028;-74
2023/03/21 05:33:44;;;;;;;22.77;8.82;;;;;;;8.70;100.00;101237.78;5064034;28;20056;-74
2023/03/21 05:36:10;;;;;;;23.58;8.95;;;;;;;8.70;100.00;101235.97;5066025;28;20503;-73
2023/03/21 05:38:36;;;;;;;20.80;8.07;;;;;;;8.71;100.00;101240.38;5065254;28;20556;-74
2023/03/21 05:41:02;;;;;;;26.88;8.90;;;;;;;8.72;100.00;101238.53;5062061;28;20021;-74
2023/03/21 05:43:27;;;;;;;20.85;8.32;;;;;;;8.71;100.00;101240.38;5054600;28;20100;-73
2023/03/21 05:45:53;;;;;;;24.60;9.75;;;;;;;8.71;100.00;101235.00;5065499;28;20037;-73
2023/03/21 05:48:18;;;;;;;20.77;7.47;;;;;;;8.71;100.00;101234.13;5068020;28;20432;-74
2023/03/21 05:50:43;;;;;;;23.95;8.50;;;;;;;8.72;100.00;101231.34;5058904;28;20025;-73
2023/03/21 05:53:09;;;;;;;22.73;7.47;;;;;;;8.71;100.00;101237.69;5059484;28;20025;-74
2023/03/21 05:55:34;;;;;;;24.67;9.13;;;;;;;8.73;100.00;101241.13;5069213;28;20032;-73
2023/03/21 05:58:00;;;;;;;21.73;8.05;;;;;;;8.73;100.00;101240.28;5066617;28;20095;-73
2023/03/21 06:00:25;;;;;;;20.95;7.95;;;;;;;8.72;100.00;101236.72;5064181;28;20035;-73
2023/03/21 06:02:51;;;;;;;24.00;8.20;;;;;;;8.74;100.00;101242.88;5057775;28;20453;-73
2023/03/21 06:05:16;;;;;;;21.02;8.07;;;;;;;8.74;100.00;101233.94;5066520;28;20030;-73
2023/03/21 06:07:41;;;;;;;24.00;7.90;;;;;;;8.76;100.00;101236.56;5061334;28;20038;-73
2023/03/21 06:10:07;;;;;;;22.55;8.52;;;;;;;8.74;100.00;101229.47;5047436;28;20028;-73
2023/03/21 06:12:33;;;;;;;27.15;8.57;;;;;;;8.77;100.00;101228.44;5050581;28;20067;-73
2023/03/21 06:14:58;;;;;;;22.00;7.95;;;;;;;8.77;100.00;101232.91;5060245;28;20059;-74
2023/03/21 06:17:24;;;;;;;26.67;8.43;;;;;;;8.77;100.00;101233.78;5056832;28;20483;-73
2023/03/21 06:19:49;;;;;;;23.92;7.57;;;;;;;8.78;100.00;101240.84;5066757;28;20037;-74
2023/03/21 06:22:15;;;;;;;22.40;8.15;;;;;;;8.80;100.00;101232.72;5061041;28;20128;-73
2023/03/21 06:24:40;;;;;;;21.95;7.25;;;;;;;8.81;100.00;101239.81;5054387;28;20031;-74
2023/03/21 06:27:05;;;;;;;20.65;7.72;;;;;;;8.85;100.00;101246.72;5063694;28;20116;-73
2023/03/21 06:29:31;;;;;;;22.73;8.27;;;;;;;8.85;100.00;101238.69;5056980;28;20521;-74
2023/03/21 06:31:56;;;;;;;22.75;8.30;;;;;;;8.87;100.00;101247.47;5046293;28;20056;-73
2023/03/21 06:34:21;;;;;;;20.73;6.82;;;;;;;8.89;100.00;101249.13;5063356;28;20031;-73
2023/03/21 06:36:47;;;;;;;19.25;6.88;;;;;;;8.89;100.00;101249.13;5065731;28;20017;-73
2023/03/21 06:39:12;;;;;;;22.42;7.82;;;;;;;8.90;100.00;101249.97;5063311;28;20096;-72
2023/03/21 06:41:38;;;;;;;18.38;6.93;;;;;;;8.90;100.00;101247.28;5063854;28;20175;-73
2023/03/21 06:44:04;;;;;;;23.98;8.45;;;;;;;8.90;100.00;101249.97;5073597;28;20029;-73
2023/03/21 06:46:29;;;;;;;20.67;6.53;;;;;;;8.90;100.00;101247.28;5058726;28;20020;-74
2023/03/21 06:48:55;;;;;;;19.42;7.00;;;;;;;8.90;100.00;101237.47;5047083;28;20150;-73
2023/03/21 06:51:20;;;;;;;20.98;7.32;;;;;;;8.90;100.00;101242.81;5056332;28;20036;-74
2023/03/21 06:53:45;;;;;;;18.92;7.00;;;;;;;8.92;100.00;101250.75;5064737;28;20083;-74
2023/03/21 06:56:12;;;;;;;23.33;8.02;;;;;;;8.91;100.00;101244.53;5069337;28;20059;-75
2023/03/21 06:58:38;;;;;;;21.42;7.30;;;;;;;8.92;100.00;101253.44;5069433;28;20024;-73
2023/03/21 07:01:04;;;;;;;22.52;8.05;;;;;;;8.90;100.00;101256.22;5057414;28;20124;-73
2023/03/21 07:03:30;;;;;;;28.88;8.32;;;;;;;8.90;100.00;101261.59;5054382;28;20037;-75
2023/03/21 07:05:56;;;;;;;23.92;7.88;;;;;;;8.91;100.00;101257.94;5066599;28;20064;-73
2023/03/21 07:08:21;;;;;;;20.70;6.72;;;;;;;8.92;100.00;101254.28;5071164;28;20036;-74
2023/03/21 07:10:46;;;;;;;20.50;7.95;;;;;;;8.92;100.00;101258.81;5064927;28;20033;-74
2023/03/21 07:13:12;;;;;;;21.33;8.32;;;;;;;8.92;100.00;101266.84;5052966;28;20025;-74
2023/03/21 07:15:38;;;;;;;21.73;7.80;;;;;;;8.92;100.00;101264.16;5046562;28;20031;-73
2023/03/21 07:18:04;;;;;;;22.17;7.38;;;;;;;8.92;100.00;101266.84;5047441;28;20443;-74
2023/03/21 07:20:30;;;;;;;23.98;8.32;;;;;;;8.94;100.00;101267.59;5048758;28;20045;-73
2023/03/21 07:22:56;;;;;;;24.67;8.75;;;;;;;8.97;100.00;101263.88;5050565;28;20039;-74
2023/03/21 07:25:21;;;;;;;22.98;7.75;;;;;;;8.99;100.00;101270.91;5050062;28;20045;-75
2023/03/21 07:27:46;;;;;;;20.83;7.55;;;;;;;8.99;100.00;101276.25;5049232;28;20041;-73
2023/03/21 07:30:12;;;;;;;22.05;8.15;;;;;;;9.00;100.00;101280.63;5060919;28;20087;-73
2023/03/21 07:32:38;;;;;;;26.35;9.52;;;;;;;9.00;100.00;101277.97;5061242;28;20017;-74
2023/03/21 07:35:05;;;;;;;26.45;8.90;;;;;;;9.02;100.00;101276.06;5070792;28;20025;-73
2023/03/21 07:37:31;;;;;;;24.48;8.65;;;;;;;9.03;100.00;101272.41;5075089;28;20033;-73
2023/03/21 07:39:56;;;;;;;22.48;7.70;;;;;;;9.05;100.00;101266.97;5058866;28;20487;-75
2023/03/21 07:42:21;;;;;;;24.38;8.95;;;;;;;9.07;100.00;101257.03;5047559;28;20037;-75
2023/03/21 07:44:51;;;;;;;22.17;7.68;;;;;;;9.07;100.00;101263.22;5066372;28;20021;-76
2023/03/21 07:47:16;;;;;;;;;;;;;;;9.14;100.00;101265.56;5075138;28;20320;-76
2023/03/21 07:49:42;;;;;;;24.27;7.68;;;;;;;9.09;100.00;101255.97;5074936;28;19912;-74
2023/03/21 07:52:07;;;;;;;19.67;8.45;;;;;;;9.09;100.00;101253.28;5073439;28;20028;-74
2023/03/21 07:54:33;;;;;;;22.83;9.18;;;;;;;9.10;100.00;101251.47;5057009;28;20033;-73
2023/03/21 07:56:59;;;;;;;24.23;9.02;;;;;;;9.08;100.00;101242.66;5056059;28;20025;-75
2023/03/21 07:59:24;;;;;;;22.45;8.05;;;;;;;9.10;100.00;101243.41;5066763;28;20021;-74
2023/03/21 08:01:50;;;;;;;20.58;8.05;;;;;;;9.11;100.00;101242.47;5076279;28;20085;-73
2023/03/21 08:04:16;;;;;;;21.50;9.10;;;;;;;9.13;100.00;101234.34;5069081;28;20110;-74
2023/03/21 08:06:41;;;;;;;24.38;9.90;;;;;;;9.15;100.00;101225.25;5076001;28;20029;-74
2023/03/21 08:09:07;;;;;;;23.58;9.95;;;;;;;9.17;100.00;101225.16;5073383;28;20035;-75
2023/03/21 08:11:32;;;;;;;23.05;9.27;;;;;;;9.18;100.00;101229.53;5066923;28;20032;-73
2023/03/21 08:13:58;;;;;;;22.30;9.50;;;;;;;9.23;100.00;101225.63;5067750;28;20032;-73
2023/03/21 08:16:24;;;;;;;26.83;8.68;;;;;;;9.26;100.00;101216.53;5068981;28;20045;-75
2023/03/21 08:18:50;;;;;;;26.55;9.73;;;;;;;9.29;100.00;101213.66;5075238;28;20102;-74
2023/03/21 08:21:15;;;;;;;24.77;10.07;;;;;;;9.31;100.00;101203.69;5064278;28;20028;-74
2023/03/21 08:23:41;;;;;;;22.77;9.23;;;;;;;9.33;100.00;101209.81;5062331;28;20042;-73
2023/03/21 08:26:08;;;;;;;25.77;9.38;;;;;;;9.33;100.00;101207.16;5058614;28;20032;-74
2023/03/21 08:28:33;;;;;;;22.48;9.05;;;;;;;9.34;100.00;101202.63;5070067;28;20017;-74
2023/03/21 08:30:59;;;;;;;21.02;7.88;;;;;;;9.34;100.00;101203.50;5075357;28;20039;-73
2023/03/21 08:33:24;;;;;;;23.23;9.45;;;;;;;9.33;100.00;101198.25;5069126;28;20342;-74
2023/03/21 08:35:49;;;;;;;23.17;9.25;;;;;;;9.35;100.00;101199.00;5061576;28;20021;-74
2023/03/21 08:38:15;;;;;;;25.02;9.05;;;;;;;9.34;100.00;101191.91;5051634;28;20036;-75
2023/03/21 08:40:41;;;;;;;23.73;9.20;;;;;;;9.34;100.00;101197.28;5072649;28;20031;-74
2023/03/21 08:43:06;;;;;;;21.45;8.07;;;;;;;9.33;100.00;101192.88;5062679;28;20484;-73
2023/03/21 08:45:31;;;;;;;22.98;8.57;;;;;;;9.34;100.00;101198.16;5067420;28;20048;-73
2023/03/21 08:47:57;;;;;;;21.25;8.57;;;;;;;9.37;100.00;101194.38;5070496;28;20036;-74
2023/03/21 08:50:25;;;;;;;21.80;8.45;;;;;;;9.37;100.00;101197.06;5067710;28;20483;-74
2023/03/21 08:52:51;;;;;;;21.05;8.00;;;;;;;9.36;100.00;101193.53;5076920;28;20139;-74
2023/03/21 08:55:17;;;;;;;21.80;7.95;;;;;;;9.37;100.00;101192.59;5061150;28;20047;-74
2023/03/21 08:57:43;;;;;;;28.08;8.45;;;;;;;9.40;100.00;101184.34;5068799;28;20096;-75
2023/03/21 09:00:13;;;;;;;24.17;8.25;;;;;;;9.43;100.00;101175.25;5078024;28;20024;-75
2023/03/21 09:02:39;;;;;;;21.38;7.93;;;;;;;9.44;100.00;101177.84;5072316;28;20051;-73
2023/03/21 09:05:06;;;;;;;24.50;8.00;;;;;;;9.45;100.00;101184.06;5069552;28;20026;-73
2023/03/21 09:07:35;;;;;;;21.25;7.72;;;;;;;9.45;100.00;101176.00;5073780;28;20036;-74
2023/03/21 09:10:01;;;;;;;19.65;6.78;;;;;;;9.48;100.00;101181.16;5065154;28;20116;-73
2023/03/21 09:12:26;;;;;;;22.85;8.18;;;;;;;9.51;100.00;101182.81;5079285;28;20025;-74
2023/03/21 09:14:52;;;;;;;19.77;7.85;;;;;;;9.54;100.00;101182.59;5073320;28;20048;-74
2023/03/21 09:17:18;;;;;;;20.65;8.45;;;;;;;9.56;100.00;101176.19;5072444;28;20059;-73
2023/03/21 09:19:46;;;;;;;22.83;8.63;;;;;;;9.60;100.00;101180.41;5082116;28;20044;-74
2023/03/21 09:22:16;;;;;;;21.20;7.90;;;;;;;9.64;100.00;101175.69;5063639;28;20026;-74
2023/03/21 09:24:42;;;;;;;26.77;7.72;;;;;;;9.66;100.00;101179.13;5073903;28;20016;-73
2023/03/21 09:27:07;;;;;;;20.85;7.47;;;;;;;9.68;100.00;101171.84;5073093;28;20032;-73
2023/03/21 09:29:33;;;;;;;20.77;6.85;;;;;;;9.73;100.00;101175.09;5071122;28;20029;-73
2023/03/21 09:31:58;;;;;;;19.40;7.78;;;;;;;9.74;100.00;101166.09;5064982;28;20029;-74
2023/03/21 09:34:25;;;;;;;23.63;8.07;;;;;;;9.76;100.00;101164.16;5077889;28;20021;-73
2023/03/21 09:36:50;;;;;;;22.85;8.15;;;;;;;9.79;100.00;101163.97;5070554;28;20489;-73
2023/03/21 09:39:16;;;;;;;22.67;8.02;;;;;;;9.82;100.00;101162.88;5073404;28;20027;-74
2023/03/21 09:42:10;;;;;;;22.10;7.53;;;;;;;9.86;100.00;101159.06;5073152;28;20021;-74
2023/03/21 09:44:42;;;;;;;23.58;8.18;;;;;;;9.86;100.00;101161.72;5068261;28;20045;-74
2023/03/21 09:47:24;;;;;;;24.00;8.00;;;;;;;9.87;100.00;101159.91;5070402;28;20036;-73
2023/03/21 09:49:59;;;;;;;20.00;7.95;;;;;;;9.89;100.00;101155.31;5073330;28;20122;-73
2023/03/21 09:52:42;;;;;;;24.42;6.88;;;;;;;9.95;100.00;101152.22;5060784;28;20495;-73
2023/03/21 09:55:23;;;;;;;24.27;7.60;;;;;;;9.96;100.00;101152.13;5070524;28;20032;-73
2023/03/21 09:57:55;;;;;;;19.95;6.90;;;;;;;10.02;100.00;101150.84;5072536;28;20029;-73
2023/03/21 10:00:28;;;;;;;19.80;6.97;;;;;;;10.06;100.00;101147.00;5070440;28;20029;-73
2023/03/21 10:02:58;;;;;;;18.55;6.35;;;;;;;10.13;100.00;101144.75;5071928;28;20104;-73
2023/03/21 10:05:27;;;;;;;22.33;7.05;;;;;;;10.17;100.00;101138.22;5071644;28;20048;-73
2023/03/21 10:08:03;;;;;;;18.80;6.50;;;;;;;10.23;100.00;101135.13;5075731;28;20040;-74
2023/03/21 10:10:34;;;;;;;22.50;6.63;;;;;;;10.29;100.00;101139.22;5073790;28;20039;-73
2023/03/21 10:13:00;;;;;;;20.08;6.28;;;;;;;10.33;100.00;101130.00;5068815;28;20048;-73
2023/03/21 10:15:26;;;;;;;22.17;7.35;;;;;;;10.39;100.00;101131.44;5071380;28;20032;-73
2023/03/21 10:17:59;;;;;;;18.73;6.70;;;;;;;10.42;100.00;101124.00;5077242;28;20032;-73
2023/03/21 10:20:29;;;;;;;17.60;6.32;;;;;;;10.47;100.00;101126.41;5072813;28;20083;-74
2023/03/21 10:22:58;;;;;;;18.02;6.63;;;;;;;10.53;100.00;101125.09;5063779;28;20124;-73
2023/03/21 10:25:36;;;;;;;20.63;6.60;;;;;;;10.59;100.00;101127.41;5054659;28;20025;-73
2023/03/21 10:28:06;;;;;;;18.33;6.15;;;;;;;10.65;100.00;101124.28;5063279;28;20017;-73
2023/03/21 10:30:49;;;;;;;19.15;6.78;;;;;;;10.73;100.00;101126.41;5074903;28;20055;-73
2023/03/21 10:33:19;;;;;;;21.92;6.88;;;;;;;10.76;100.00;101121.72;5067154;28;20032;-74
2023/03/21 10:35:50;;;;;;;20.77;6.75;;;;;;;10.81;100.00;101121.38;5064359;28;20043;-73
2023/03/21 10:38:18;;;;;;;23.05;6.72;;;;;;;10.89;100.00;101120.84;5074253;28;20054;-73
2023/03/21 10:40:44;;;;;;;16.77;5.75;;;;;;;10.92;100.00;101131.38;5071033;28;20036;-73
2023/03/21 10:43:24;;;;;;;19.38;6.18;;;;;;;10.97;100.00;101127.41;5064173;28;20039;-73
2023/03/21 10:45:50;;;;;;;17.60;6.53;;;;;;;11.01;100.00;101126.22;5071579;28;20113;-74
2023/03/21 10:48:16;;;;;;;23.95;6.75;;;;;;;11.06;100.00;101130.41;5072563;28;20036;-73
2023/03/21 10:50:46;;;;;;;19.58;5.97;;;;;;;11.08;100.00;101128.47;5066945;28;20025;-74
2023/03/21 10:53:21;;;;;;;19.23;7.30;;;;;;;11.13;100.00;101124.47;5072810;28;20082;-73
2023/03/21 10:55:51;;;;;;;22.02;6.47;;;;;;;11.18;100.00;101130.38;5070053;28;20044;-75
2023/03/21 10:58:26;;;;;;;18.77;5.90;;;;;;;11.24;99.57;101131.78;5064834;28;20032;-74
2023/03/21 11:00:57;;;;;;;17.40;6.05;;;;;;;11.30;100.00;101125.97;5059258;28;20060;-73
2023/03/21 11:03:30;;;;;;;19.73;6.85;;;;;;;11.39;100.00;101112.81;5071061;28;20161;-75
2023/03/21 11:06:00;;;;;;;17.00;6.07;;;;;;;11.41;99.18;101110.88;5066148;28;20024;-73
2023/03/21 11:08:26;;;;;;;19.55;6.22;;;;;;;11.46;99.02;101117.63;5071176;28;20455;-73
2023/03/21 11:11:02;;;;;;;22.70;6.28;;;;;;;11.47;98.47;101103.19;5061079;28;20028;-73
2023/03/21 11:13:38;;;;;;;19.40;6.55;;;;;;;11.53;96.66;101118.06;5057925;28;20095;-73
2023/03/21 11:16:05;;;;;;;18.77;5.82;;;;;;;11.54;94.81;101123.31;5069575;28;20028;-73
2023/03/21 11:18:32;;;;;;;17.08;5.75;;;;;;;11.57;94.61;101126.75;5068992;28;20032;-73
2023/03/21 11:21:02;;;;;;;21.42;6.80;;;;;;;11.61;94.83;101123.75;5069627;28;20052;-74
2023/03/21 11:23:30;;;;;;;17.17;5.85;;;;;;;11.66;95.00;101118.00;5072137;28;20059;-74
2023/03/21 11:25:59;;;;;;;20.15;6.60;;;;;;;11.70;94.23;101122.22;5067468;28;20025;-74